sensor_id;sensor_type;location;lat;lon;timestamp;P1;P2;P0
44045;PMS7003;29709;52.396;16.796;2022-10-28T00:01:49;27;22;16
44045;PMS7003;29709;52.396;16.796;2022-10-28T00:04:52;29;23;16
44045;PMS7003;29709;52.396;16.796;2022-10-28T00:07:55;30;25;18
44045;PMS7003;29709;52.396;16.796;2022-10-28T00:14:12;24;21;16
44045;PMS7003;29709;52.396;16.796;2022-10-28T00:17:41;27;22;16
44045;PMS7003;29709;52.396;16.796;2022-10-28T00:20:44;28;23;16
44045;PMS7003;29709;52.396;16.796;2022-10-28T00:23:47;28;23;17
44045;PMS7003;29709;52.396;16.796;2022-10-28T00:26:50;30;24;17
44045;PMS7003;29709;52.396;16.796;2022-10-28T00:29:53;25;21;16
44045;PMS7003;29709;52.396;16.796;2022-10-28T00:32:56;30;26;18
44045;PMS7003;29709;52.396;16.796;2022-10-28T00:39:23;29;24;17
44045;PMS7003;29709;52.396;16.796;2022-10-28T00:42:49;29;23;16
44045;PMS7003;29709;52.396;16.796;2022-10-28T00:45:52;26;22;16
44045;PMS7003;29709;52.396;16.796;2022-10-28T00:49:43;29;24;16
44045;PMS7003;29709;52.396;16.796;2022-10-28T00:52:12;32;24;17
44045;PMS7003;29709;52.396;16.796;2022-10-28T00:55:20;29;25;17
44045;PMS7003;29709;52.396;16.796;2022-10-28T00:58:24;24;22;15
44045;PMS7003;29709;52.396;16.796;2022-10-28T01:01:28;30;24;17
44045;PMS7003;29709;52.396;16.796;2022-10-28T01:04:56;25;22;16
44045;PMS7003;29709;52.396;16.796;2022-10-28T01:08:01;27;22;16
44045;PMS7003;29709;52.396;16.796;2022-10-28T01:17:39;28;23;17
44045;PMS7003;29709;52.396;16.796;2022-10-28T01:24:35;28;23;17
44045;PMS7003;29709;52.396;16.796;2022-10-28T01:37:30;23;20;15
44045;PMS7003;29709;52.396;16.796;2022-10-28T01:43:59;20;17;13
44045;PMS7003;29709;52.396;16.796;2022-10-28T01:47:26;23;21;15
44045;PMS7003;29709;52.396;16.796;2022-10-28T01:50:27;23;20;15
44045;PMS7003;29709;52.396;16.796;2022-10-28T01:53:38;22;19;14
44045;PMS7003;29709;52.396;16.796;2022-10-28T01:56:45;26;20;15
44045;PMS7003;29709;52.396;16.796;2022-10-28T01:59:49;23;21;16
44045;PMS7003;29709;52.396;16.796;2022-10-28T02:03:21;21;18;14
44045;PMS7003;29709;52.396;16.796;2022-10-28T02:06:26;23;20;15
44045;PMS7003;29709;52.396;16.796;2022-10-28T02:12:45;24;20;15
44045;PMS7003;29709;52.396;16.796;2022-10-28T02:16:05;23;19;14
44045;PMS7003;29709;52.396;16.796;2022-10-28T02:19:17;25;20;14
44045;PMS7003;29709;52.396;16.796;2022-10-28T02:22:27;21;17;12
44045;PMS7003;29709;52.396;16.796;2022-10-28T02:25:36;23;20;15
44045;PMS7003;29709;52.396;16.796;2022-10-28T02:28:48;25;20;15
44045;PMS7003;29709;52.396;16.796;2022-10-28T02:32:04;25;21;15
44045;PMS7003;29709;52.396;16.796;2022-10-28T02:35:17;25;20;15
44045;PMS7003;29709;52.396;16.796;2022-10-28T02:38:30;24;20;15
44045;PMS7003;29709;52.396;16.796;2022-10-28T02:41:43;23;20;15
44045;PMS7003;29709;52.396;16.796;2022-10-28T02:44:53;25;20;15
44045;PMS7003;29709;52.396;16.796;2022-10-28T02:48:11;25;20;14
44045;PMS7003;29709;52.396;16.796;2022-10-28T02:51:16;23;21;15
44045;PMS7003;29709;52.396;16.796;2022-10-28T02:54:34;30;25;18
44045;PMS7003;29709;52.396;16.796;2022-10-28T02:57:35;22;20;15
44045;PMS7003;29709;52.396;16.796;2022-10-28T03:00:43;25;21;15
44045;PMS7003;29709;52.396;16.796;2022-10-28T03:04:12;20;18;14
44045;PMS7003;29709;52.396;16.796;2022-10-28T03:07:15;25;22;15
44045;PMS7003;29709;52.396;16.796;2022-10-28T03:10:18;24;20;14
44045;PMS7003;29709;52.396;16.796;2022-10-28T03:13:21;22;20;14
44045;PMS7003;29709;52.396;16.796;2022-10-28T03:16:24;23;19;14
44045;PMS7003;29709;52.396;16.796;2022-10-28T03:19:28;21;19;15
44045;PMS7003;29709;52.396;16.796;2022-10-28T03:22:30;26;21;15
44045;PMS7003;29709;52.396;16.796;2022-10-28T03:25:33;22;20;15
44045;PMS7003;29709;52.396;16.796;2022-10-28T03:28:36;20;17;12
44045;PMS7003;29709;52.396;16.796;2022-10-28T03:31:39;22;19;14
44045;PMS7003;29709;52.396;16.796;2022-10-28T03:34:42;21;19;14
44045;PMS7003;29709;52.396;16.796;2022-10-28T03:38:10;21;19;13
44045;PMS7003;29709;52.396;16.796;2022-10-28T03:41:13;19;17;13
44045;PMS7003;29709;52.396;16.796;2022-10-28T03:44:16;25;20;15
44045;PMS7003;29709;52.396;16.796;2022-10-28T03:47:19;21;20;15
44045;PMS7003;29709;52.396;16.796;2022-10-28T03:50:22;22;20;14
44045;PMS7003;29709;52.396;16.796;2022-10-28T03:53:26;24;21;16
44045;PMS7003;29709;52.396;16.796;2022-10-28T03:56:29;21;20;15
44045;PMS7003;29709;52.396;16.796;2022-10-28T03:59:31;23;19;14
44045;PMS7003;29709;52.396;16.796;2022-10-28T04:02:34;19;16;12
44045;PMS7003;29709;52.396;16.796;2022-10-28T04:05:37;26;21;15
44045;PMS7003;29709;52.396;16.796;2022-10-28T04:09:08;30;24;17
44045;PMS7003;29709;52.396;16.796;2022-10-28T04:12:11;24;21;15
44045;PMS7003;29709;52.396;16.796;2022-10-28T04:15:14;24;21;15
44045;PMS7003;29709;52.396;16.796;2022-10-28T04:18:17;27;22;15
44045;PMS7003;29709;52.396;16.796;2022-10-28T04:21:20;23;19;14
44045;PMS7003;29709;52.396;16.796;2022-10-28T04:24:22;22;19;14
44045;PMS7003;29709;52.396;16.796;2022-10-28T04:27:25;15;13;10
44045;PMS7003;29709;52.396;16.796;2022-10-28T04:30:28;21;19;14
44045;PMS7003;29709;52.396;16.796;2022-10-28T04:33:31;23;20;14
44045;PMS7003;29709;52.396;16.796;2022-10-28T04:36:36;27;22;16
44045;PMS7003;29709;52.396;16.796;2022-10-28T04:39:39;22;20;15
44045;PMS7003;29709;52.396;16.796;2022-10-28T04:43:07;24;21;15
44045;PMS7003;29709;52.396;16.796;2022-10-28T04:46:12;8;4;4
44045;PMS7003;29709;52.396;16.796;2022-10-28T04:49:15;27;21;15
44045;PMS7003;29709;52.396;16.796;2022-10-28T04:52:18;24;21;15
44045;PMS7003;29709;52.396;16.796;2022-10-28T04:55:21;19;19;14
44045;PMS7003;29709;52.396;16.796;2022-10-28T04:58:25;25;21;15
44045;PMS7003;29709;52.396;16.796;2022-10-28T05:01:28;24;20;14
44045;PMS7003;29709;52.396;16.796;2022-10-28T05:04:31;20;18;14
44045;PMS7003;29709;52.396;16.796;2022-10-28T05:07:34;23;21;16
44045;PMS7003;29709;52.396;16.796;2022-10-28T05:10:38;23;19;14
44045;PMS7003;29709;52.396;16.796;2022-10-28T05:14:07;21;21;15
44045;PMS7003;29709;52.396;16.796;2022-10-28T05:17:10;22;20;14
44045;PMS7003;29709;52.396;16.796;2022-10-28T05:20:14;23;20;15
44045;PMS7003;29709;52.396;16.796;2022-10-28T05:23:21;20;18;14
44045;PMS7003;29709;52.396;16.796;2022-10-28T05:26:24;24;22;17
44045;PMS7003;29709;52.396;16.796;2022-10-28T05:29:27;27;24;17
44045;PMS7003;29709;52.396;16.796;2022-10-28T05:32:30;24;20;15
44045;PMS7003;29709;52.396;16.796;2022-10-28T05:35:33;22;19;14
44045;PMS7003;29709;52.396;16.796;2022-10-28T05:38:35;21;18;14
44045;PMS7003;29709;52.396;16.796;2022-10-28T05:41:38;18;17;13
44045;PMS7003;29709;52.396;16.796;2022-10-28T05:45:07;19;18;13
44045;PMS7003;29709;52.396;16.796;2022-10-28T05:48:11;20;18;12
44045;PMS7003;29709;52.396;16.796;2022-10-28T05:51:14;21;17;13
44045;PMS7003;29709;52.396;16.796;2022-10-28T05:54:19;31;25;18
44045;PMS7003;29709;52.396;16.796;2022-10-28T05:57:22;21;18;13
44045;PMS7003;29709;52.396;16.796;2022-10-28T06:00:25;18;17;12
44045;PMS7003;29709;52.396;16.796;2022-10-28T06:03:29;19;17;13
44045;PMS7003;29709;52.396;16.796;2022-10-28T06:06:32;17;16;11
44045;PMS7003;29709;52.396;16.796;2022-10-28T06:09:35;19;18;13
44045;PMS7003;29709;52.396;16.796;2022-10-28T06:12:38;22;19;15
44045;PMS7003;29709;52.396;16.796;2022-10-28T06:16:07;22;18;14
44045;PMS7003;29709;52.396;16.796;2022-10-28T06:19:10;25;21;15
44045;PMS7003;29709;52.396;16.796;2022-10-28T06:22:13;23;19;15
44045;PMS7003;29709;52.396;16.796;2022-10-28T06:25:16;16;15;12
44045;PMS7003;29709;52.396;16.796;2022-10-28T06:28:20;20;18;13
44045;PMS7003;29709;52.396;16.796;2022-10-28T06:31:23;19;18;13
44045;PMS7003;29709;52.396;16.796;2022-10-28T06:34:28;17;15;12
44045;PMS7003;29709;52.396;16.796;2022-10-28T06:37:33;20;18;13
44045;PMS7003;29709;52.396;16.796;2022-10-28T06:40:38;20;18;13
44045;PMS7003;29709;52.396;16.796;2022-10-28T06:44:11;23;19;14
44045;PMS7003;29709;52.396;16.796;2022-10-28T06:47:14;22;19;14
44045;PMS7003;29709;52.396;16.796;2022-10-28T06:50:18;27;23;18
44045;PMS7003;29709;52.396;16.796;2022-10-28T06:53:24;23;19;14
44045;PMS7003;29709;52.396;16.796;2022-10-28T06:56:28;20;18;13
44045;PMS7003;29709;52.396;16.796;2022-10-28T06:59:33;20;17;13
44045;PMS7003;29709;52.396;16.796;2022-10-28T07:02:38;18;17;12
44045;PMS7003;29709;52.396;16.796;2022-10-28T07:05:44;18;17;12
44045;PMS7003;29709;52.396;16.796;2022-10-28T07:09:17;23;20;15
44045;PMS7003;29709;52.396;16.796;2022-10-28T07:12:20;20;18;12
44045;PMS7003;29709;52.396;16.796;2022-10-28T07:15:24;19;18;13
44045;PMS7003;29709;52.396;16.796;2022-10-28T07:18:29;21;17;13
44045;PMS7003;29709;52.396;16.796;2022-10-28T07:21:34;20;19;14
44045;PMS7003;29709;52.396;16.796;2022-10-28T07:24:39;22;20;14
44045;PMS7003;29709;52.396;16.796;2022-10-28T07:27:44;22;19;14
44045;PMS7003;29709;52.396;16.796;2022-10-28T07:30:49;23;19;14
44045;PMS7003;29709;52.396;16.796;2022-10-28T07:34:23;23;20;15
44045;PMS7003;29709;52.396;16.796;2022-10-28T07:37:26;20;17;13
44045;PMS7003;29709;52.396;16.796;2022-10-28T07:40:30;17;15;11
44045;PMS7003;29709;52.396;16.796;2022-10-28T07:43:38;16;15;12
44045;PMS7003;29709;52.396;16.796;2022-10-28T07:46:41;17;15;11
44045;PMS7003;29709;52.396;16.796;2022-10-28T07:49:45;22;15;12
44045;PMS7003;29709;52.396;16.796;2022-10-28T07:52:50;14;13;9
44045;PMS7003;29709;52.396;16.796;2022-10-28T07:55:56;16;15;11
44045;PMS7003;29709;52.396;16.796;2022-10-28T07:59:29;16;14;11
44045;PMS7003;29709;52.396;16.796;2022-10-28T08:02:32;15;14;11
44045;PMS7003;29709;52.396;16.796;2022-10-28T08:05:36;16;15;11
44045;PMS7003;29709;52.396;16.796;2022-10-28T08:08:41;16;15;12
44045;PMS7003;29709;52.396;16.796;2022-10-28T08:11:46;17;14;12
44045;PMS7003;29709;52.396;16.796;2022-10-28T08:14:51;17;14;11
44045;PMS7003;29709;52.396;16.796;2022-10-28T08:17:56;17;16;12
44045;PMS7003;29709;52.396;16.796;2022-10-28T08:21:01;16;14;11
44045;PMS7003;29709;52.396;16.796;2022-10-28T08:24:34;17;16;11
44045;PMS7003;29709;52.396;16.796;2022-10-28T08:27:38;15;14;10
44045;PMS7003;29709;52.396;16.796;2022-10-28T08:30:43;16;14;11
44045;PMS7003;29709;52.396;16.796;2022-10-28T08:33:47;19;15;11
44045;PMS7003;29709;52.396;16.796;2022-10-28T08:36:52;18;16;12
44045;PMS7003;29709;52.396;16.796;2022-10-28T08:39:57;9;7;4
44045;PMS7003;29709;52.396;16.796;2022-10-28T08:43:04;15;14;11
44045;PMS7003;29709;52.396;16.796;2022-10-28T08:50:04;7;4;2
44045;PMS7003;29709;52.396;16.796;2022-10-28T08:53:13;16;13;10
44045;PMS7003;29709;52.396;16.796;2022-10-28T09:00:02;17;14;11
44045;PMS7003;29709;52.396;16.796;2022-10-28T09:03:15;11;9;7
44045;PMS7003;29709;52.396;16.796;2022-10-28T09:06:24;17;12;8
44045;PMS7003;29709;52.396;16.796;2022-10-28T09:09:27;10;9;7
44045;PMS7003;29709;52.396;16.796;2022-10-28T09:22:47;7;7;6
44045;PMS7003;29709;52.396;16.796;2022-10-28T09:36:15;11;9;7
44045;PMS7003;29709;52.396;16.796;2022-10-28T09:39:28;9;8;8
44045;PMS7003;29709;52.396;16.796;2022-10-28T09:42:39;11;9;7
44045;PMS7003;29709;52.396;16.796;2022-10-28T09:45:48;10;9;7
44045;PMS7003;29709;52.396;16.796;2022-10-28T09:48:55;11;11;9
44045;PMS7003;29709;52.396;16.796;2022-10-28T09:52:11;11;10;8
44045;PMS7003;29709;52.396;16.796;2022-10-28T09:55:20;11;8;6
44045;PMS7003;29709;52.396;16.796;2022-10-28T09:58:50;10;9;8
44045;PMS7003;29709;52.396;16.796;2022-10-28T10:01:55;11;10;9
44045;PMS7003;29709;52.396;16.796;2022-10-28T10:04:59;13;9;8
44045;PMS7003;29709;52.396;16.796;2022-10-28T10:08:04;12;10;8
44045;PMS7003;29709;52.396;16.796;2022-10-28T10:11:12;13;10;9
44045;PMS7003;29709;52.396;16.796;2022-10-28T10:17:42;12;11;9
44045;PMS7003;29709;52.396;16.796;2022-10-28T10:20:49;10;10;9
44045;PMS7003;29709;52.396;16.796;2022-10-28T10:30:22;11;9;7
44045;PMS7003;29709;52.396;16.796;2022-10-28T10:33:32;9;7;5
44045;PMS7003;29709;52.396;16.796;2022-10-28T10:36:37;8;6;5
44045;PMS7003;29709;52.396;16.796;2022-10-28T10:46:20;9;9;7
44045;PMS7003;29709;52.396;16.796;2022-10-28T10:49:48;11;9;7
44045;PMS7003;29709;52.396;16.796;2022-10-28T10:52:54;7;6;5
44045;PMS7003;29709;52.396;16.796;2022-10-28T11:05:46;8;7;6
44045;PMS7003;29709;52.396;16.796;2022-10-28T11:09:03;9;7;5
44045;PMS7003;29709;52.396;16.796;2022-10-28T11:15:24;8;6;5
44045;PMS7003;29709;52.396;16.796;2022-10-28T11:21:54;10;8;5
44045;PMS7003;29709;52.396;16.796;2022-10-28T11:34:54;8;7;6
44045;PMS7003;29709;52.396;16.796;2022-10-28T11:38:11;9;7;5
44045;PMS7003;29709;52.396;16.796;2022-10-28T11:48:01;9;8;6
44045;PMS7003;29709;52.396;16.796;2022-10-28T12:14:11;9;9;6
44045;PMS7003;29709;52.396;16.796;2022-10-28T12:20:41;9;7;6
44045;PMS7003;29709;52.396;16.796;2022-10-28T12:23:55;10;8;7
44045;PMS7003;29709;52.396;16.796;2022-10-28T12:27:00;8;6;5
44045;PMS7003;29709;52.396;16.796;2022-10-28T12:36:43;7;6;5
44045;PMS7003;29709;52.396;16.796;2022-10-28T12:43:28;8;6;6
44045;PMS7003;29709;52.396;16.796;2022-10-28T12:53:11;5;4;3
44045;PMS7003;29709;52.396;16.796;2022-10-28T12:56:14;5;4;2
44045;PMS7003;29709;52.396;16.796;2022-10-28T12:59:28;6;6;5
44045;PMS7003;29709;52.396;16.796;2022-10-28T13:02:37;8;6;5
44045;PMS7003;29709;52.396;16.796;2022-10-28T13:05:49;8;7;5
44045;PMS7003;29709;52.396;16.796;2022-10-28T13:15:34;6;6;5
44045;PMS7003;29709;52.396;16.796;2022-10-28T13:25:20;4;4;3
44045;PMS7003;29709;52.396;16.796;2022-10-28T13:28:34;4;4;2
44045;PMS7003;29709;52.396;16.796;2022-10-28T13:31:44;5;4;3
44045;PMS7003;29709;52.396;16.796;2022-10-28T13:34:49;6;5;4
44045;PMS7003;29709;52.396;16.796;2022-10-28T13:38:20;5;4;3
44045;PMS7003;29709;52.396;16.796;2022-10-28T13:41:29;5;5;3
44045;PMS7003;29709;52.396;16.796;2022-10-28T13:47:50;8;7;6
44045;PMS7003;29709;52.396;16.796;2022-10-28T13:54:21;6;6;5
44045;PMS7003;29709;52.396;16.796;2022-10-28T14:00:36;6;5;4
44045;PMS7003;29709;52.396;16.796;2022-10-28T14:03:42;8;5;4
44045;PMS7003;29709;52.396;16.796;2022-10-28T14:10:26;4;4;4
44045;PMS7003;29709;52.396;16.796;2022-10-28T14:13:26;7;6;5
44045;PMS7003;29709;52.396;16.796;2022-10-28T14:16:31;8;6;6
44045;PMS7003;29709;52.396;16.796;2022-10-28T14:19:38;8;6;5
44045;PMS7003;29709;52.396;16.796;2022-10-28T14:26:21;9;7;6
44045;PMS7003;29709;52.396;16.796;2022-10-28T14:29:27;7;4;3
44045;PMS7003;29709;52.396;16.796;2022-10-28T14:35:44;5;5;4
44045;PMS7003;29709;52.396;16.796;2022-10-28T14:42:12;5;4;3
44045;PMS7003;29709;52.396;16.796;2022-10-28T14:48:43;9;9;7
44045;PMS7003;29709;52.396;16.796;2022-10-28T14:51:52;14;14;12
44045;PMS7003;29709;52.396;16.796;2022-10-28T14:55:23;9;8;6
44045;PMS7003;29709;52.396;16.796;2022-10-28T14:58:50;6;5;5
44045;PMS7003;29709;52.396;16.796;2022-10-28T15:01:49;7;7;6
44045;PMS7003;29709;52.396;16.796;2022-10-28T15:08:15;6;5;5
44045;PMS7003;29709;52.396;16.796;2022-10-28T15:11:45;6;6;5
44045;PMS7003;29709;52.396;16.796;2022-10-28T15:14:53;6;5;4
44045;PMS7003;29709;52.396;16.796;2022-10-28T15:17:58;7;5;5
44045;PMS7003;29709;52.396;16.796;2022-10-28T15:24:12;4;4;3
44045;PMS7003;29709;52.396;16.796;2022-10-28T15:27:15;4;4;4
44045;PMS7003;29709;52.396;16.796;2022-10-28T15:30:20;5;5;4
44045;PMS7003;29709;52.396;16.796;2022-10-28T15:33:53;5;5;4
44045;PMS7003;29709;52.396;16.796;2022-10-28T15:36:59;5;5;4
44045;PMS7003;29709;52.396;16.796;2022-10-28T15:43:17;7;7;5
44045;PMS7003;29709;52.396;16.796;2022-10-28T15:46:25;8;7;6
44045;PMS7003;29709;52.396;16.796;2022-10-28T15:52:40;7;6;5
44045;PMS7003;29709;52.396;16.796;2022-10-28T15:55:45;8;7;6
44045;PMS7003;29709;52.396;16.796;2022-10-28T15:59:16;7;7;5
44045;PMS7003;29709;52.396;16.796;2022-10-28T16:05:41;9;8;5
44045;PMS7003;29709;52.396;16.796;2022-10-28T16:08:46;9;8;6
44045;PMS7003;29709;52.396;16.796;2022-10-28T16:11:51;7;7;6
44045;PMS7003;29709;52.396;16.796;2022-10-28T16:15:01;9;9;6
44045;PMS7003;29709;52.396;16.796;2022-10-28T16:18:30;9;7;6
44045;PMS7003;29709;52.396;16.796;2022-10-28T16:21:39;9;7;6
44045;PMS7003;29709;52.396;16.796;2022-10-28T16:24:42;10;9;7
44045;PMS7003;29709;52.396;16.796;2022-10-28T16:27:47;14;11;9
44045;PMS7003;29709;52.396;16.796;2022-10-28T16:30:52;11;10;8
44045;PMS7003;29709;52.396;16.796;2022-10-28T16:34:01;12;10;8
44045;PMS7003;29709;52.396;16.796;2022-10-28T16:37:26;22;19;14
44045;PMS7003;29709;52.396;16.796;2022-10-28T16:40:17;31;27;18
44045;PMS7003;29709;52.396;16.796;2022-10-28T16:43:46;44;33;23
44045;PMS7003;29709;52.396;16.796;2022-10-28T16:46:49;35;28;18
44045;PMS7003;29709;52.396;16.796;2022-10-28T16:49:52;24;21;15
44045;PMS7003;29709;52.396;16.796;2022-10-28T16:52:55;22;20;15
44045;PMS7003;29709;52.396;16.796;2022-10-28T16:55:58;14;13;10
44045;PMS7003;29709;52.396;16.796;2022-10-28T16:59:02;19;15;12
44045;PMS7003;29709;52.396;16.796;2022-10-28T17:02:11;16;12;10
44045;PMS7003;29709;52.396;16.796;2022-10-28T17:05:17;16;14;11
44045;PMS7003;29709;52.396;16.796;2022-10-28T17:08:52;15;14;10
44045;PMS7003;29709;52.396;16.796;2022-10-28T17:11:55;14;13;10
44045;PMS7003;29709;52.396;16.796;2022-10-28T17:14:58;15;13;11
44045;PMS7003;29709;52.396;16.796;2022-10-28T17:18:01;20;17;12
44045;PMS7003;29709;52.396;16.796;2022-10-28T17:21:05;17;15;12
44045;PMS7003;29709;52.396;16.796;2022-10-28T17:24:09;18;16;12
44045;PMS7003;29709;52.396;16.796;2022-10-28T17:27:12;21;18;14
44045;PMS7003;29709;52.396;16.796;2022-10-28T17:30:19;17;14;12
44045;PMS7003;29709;52.396;16.796;2022-10-28T17:33:23;18;15;11
44045;PMS7003;29709;52.396;16.796;2022-10-28T17:36:54;14;13;10
44045;PMS7003;29709;52.396;16.796;2022-10-28T17:40:00;16;13;11
44045;PMS7003;29709;52.396;16.796;2022-10-28T17:43:04;15;11;10
44045;PMS7003;29709;52.396;16.796;2022-10-28T17:46:07;15;12;10
44045;PMS7003;29709;52.396;16.796;2022-10-28T17:49:11;13;13;9
44045;PMS7003;29709;52.396;16.796;2022-10-28T17:52:16;17;14;12
44045;PMS7003;29709;52.396;16.796;2022-10-28T17:55:20;15;11;8
44045;PMS7003;29709;52.396;16.796;2022-10-28T17:58:23;12;10;8
44045;PMS7003;29709;52.396;16.796;2022-10-28T18:01:27;13;11;8
44045;PMS7003;29709;52.396;16.796;2022-10-28T18:04:57;10;8;5
44045;PMS7003;29709;52.396;16.796;2022-10-28T18:08:00;12;11;9
44045;PMS7003;29709;52.396;16.796;2022-10-28T18:11:05;11;9;8
44045;PMS7003;29709;52.396;16.796;2022-10-28T18:14:09;11;10;8
44045;PMS7003;29709;52.396;16.796;2022-10-28T18:17:12;10;9;7
44045;PMS7003;29709;52.396;16.796;2022-10-28T18:20:20;9;9;7
44045;PMS7003;29709;52.396;16.796;2022-10-28T18:23:23;14;13;10
44045;PMS7003;29709;52.396;16.796;2022-10-28T18:26:27;21;17;13
44045;PMS7003;29709;52.396;16.796;2022-10-28T18:29:30;17;14;12
44045;PMS7003;29709;52.396;16.796;2022-10-28T18:32:59;14;12;10
44045;PMS7003;29709;52.396;16.796;2022-10-28T18:36:08;13;10;8
44045;PMS7003;29709;52.396;16.796;2022-10-28T18:39:13;12;9;7
44045;PMS7003;29709;52.396;16.796;2022-10-28T18:42:19;13;12;10
44045;PMS7003;29709;52.396;16.796;2022-10-28T18:45:22;11;10;8
44045;PMS7003;29709;52.396;16.796;2022-10-28T18:48:25;12;11;9
44045;PMS7003;29709;52.396;16.796;2022-10-28T18:51:29;12;8;6
44045;PMS7003;29709;52.396;16.796;2022-10-28T18:54:36;11;10;9
44045;PMS7003;29709;52.396;16.796;2022-10-28T18:58:05;11;10;8
44045;PMS7003;29709;52.396;16.796;2022-10-28T19:04:29;12;8;6
44045;PMS7003;29709;52.396;16.796;2022-10-28T19:07:32;13;11;9
44045;PMS7003;29709;52.396;16.796;2022-10-28T19:10:35;9;8;6
44045;PMS7003;29709;52.396;16.796;2022-10-28T19:13:39;10;9;8
44045;PMS7003;29709;52.396;16.796;2022-10-28T19:16:44;12;10;8
44045;PMS7003;29709;52.396;16.796;2022-10-28T19:20:14;13;11;9
44045;PMS7003;29709;52.396;16.796;2022-10-28T19:23:18;16;13;9
44045;PMS7003;29709;52.396;16.796;2022-10-28T19:26:22;17;14;10
44045;PMS7003;29709;52.396;16.796;2022-10-28T19:29:26;16;14;11
44045;PMS7003;29709;52.396;16.796;2022-10-28T19:32:32;16;14;11
44045;PMS7003;29709;52.396;16.796;2022-10-28T19:35:35;15;12;9
44045;PMS7003;29709;52.396;16.796;2022-10-28T19:38:38;14;13;10
44045;PMS7003;29709;52.396;16.796;2022-10-28T19:41:42;13;12;9
44045;PMS7003;29709;52.396;16.796;2022-10-28T19:44:45;10;8;4
44045;PMS7003;29709;52.396;16.796;2022-10-28T19:47:48;16;14;10
44045;PMS7003;29709;52.396;16.796;2022-10-28T19:51:18;13;10;9
44045;PMS7003;29709;52.396;16.796;2022-10-28T19:54:26;20;13;9
44045;PMS7003;29709;52.396;16.796;2022-10-28T19:57:29;14;12;10
44045;PMS7003;29709;52.396;16.796;2022-10-28T20:03:40;15;13;10
44045;PMS7003;29709;52.396;16.796;2022-10-28T20:06:49;11;10;9
44045;PMS7003;29709;52.396;16.796;2022-10-28T20:09:52;11;10;9
44045;PMS7003;29709;52.396;16.796;2022-10-28T20:13:23;11;10;8
44045;PMS7003;29709;52.396;16.796;2022-10-28T20:16:27;12;9;8
44045;PMS7003;29709;52.396;16.796;2022-10-28T20:19:30;10;10;8
44045;PMS7003;29709;52.396;16.796;2022-10-28T20:22:34;9;8;6
44045;PMS7003;29709;52.396;16.796;2022-10-28T20:25:37;15;12;8
44045;PMS7003;29709;52.396;16.796;2022-10-28T20:28:40;13;10;7
44045;PMS7003;29709;52.396;16.796;2022-10-28T20:31:44;12;11;9
44045;PMS7003;29709;52.396;16.796;2022-10-28T20:34:47;11;10;8
44045;PMS7003;29709;52.396;16.796;2022-10-28T20:37:51;12;10;8
44045;PMS7003;29709;52.396;16.796;2022-10-28T20:40:56;11;9;7
44045;PMS7003;29709;52.396;16.796;2022-10-28T20:44:27;13;11;9
44045;PMS7003;29709;52.396;16.796;2022-10-28T20:47:30;11;10;8
44045;PMS7003;29709;52.396;16.796;2022-10-28T20:50:33;10;9;7
44045;PMS7003;29709;52.396;16.796;2022-10-28T20:53:36;8;6;5
44045;PMS7003;29709;52.396;16.796;2022-10-28T20:56:40;12;10;8
44045;PMS7003;29709;52.396;16.796;2022-10-28T20:59:44;11;9;7
44045;PMS7003;29709;52.396;16.796;2022-10-28T21:02:48;12;10;8
44045;PMS7003;29709;52.396;16.796;2022-10-28T21:05:52;9;7;7
44045;PMS7003;29709;52.396;16.796;2022-10-28T21:08:56;13;9;7
44045;PMS7003;29709;52.396;16.796;2022-10-28T21:12:26;11;9;7
44045;PMS7003;29709;52.396;16.796;2022-10-28T21:18:40;8;6;5
44045;PMS7003;29709;52.396;16.796;2022-10-28T21:21:44;9;8;6
44045;PMS7003;29709;52.396;16.796;2022-10-28T21:24:50;9;8;6
44045;PMS7003;29709;52.396;16.796;2022-10-28T21:27:55;10;8;6
44045;PMS7003;29709;52.396;16.796;2022-10-28T21:30:59;12;10;7
44045;PMS7003;29709;52.396;16.796;2022-10-28T21:34:03;8;7;6
44045;PMS7003;29709;52.396;16.796;2022-10-28T21:37:32;7;6;5
44045;PMS7003;29709;52.396;16.796;2022-10-28T21:40:35;8;7;6
44045;PMS7003;29709;52.396;16.796;2022-10-28T21:43:39;9;8;7
44045;PMS7003;29709;52.396;16.796;2022-10-28T21:46:44;8;8;7
44045;PMS7003;29709;52.396;16.796;2022-10-28T21:49:49;9;7;6
44045;PMS7003;29709;52.396;16.796;2022-10-28T21:54:33;10;9;7
44045;PMS7003;29709;52.396;16.796;2022-10-28T21:57:36;9;9;8
44045;PMS7003;29709;52.396;16.796;2022-10-28T22:00:39;9;7;7
44045;PMS7003;29709;52.396;16.796;2022-10-28T22:03:44;8;7;6
44045;PMS7003;29709;52.396;16.796;2022-10-28T22:06:47;9;9;7
44045;PMS7003;29709;52.396;16.796;2022-10-28T22:09:50;10;9;7
44045;PMS7003;29709;52.396;16.796;2022-10-28T22:12:53;10;8;7
44045;PMS7003;29709;52.396;16.796;2022-10-28T22:15:57;3;3;2
44045;PMS7003;29709;52.396;16.796;2022-10-28T22:19:04;12;11;9
44045;PMS7003;29709;52.396;16.796;2022-10-28T22:22:34;10;10;9
44045;PMS7003;29709;52.396;16.796;2022-10-28T22:25:38;11;9;7
44045;PMS7003;29709;52.396;16.796;2022-10-28T22:28:41;12;10;8
44045;PMS7003;29709;52.396;16.796;2022-10-28T22:31:44;10;9;7
44045;PMS7003;29709;52.396;16.796;2022-10-28T22:34:49;11;9;7
44045;PMS7003;29709;52.396;16.796;2022-10-28T22:37:52;10;8;6
44045;PMS7003;29709;52.396;16.796;2022-10-28T22:41:02;10;8;7
44045;PMS7003;29709;52.396;16.796;2022-10-28T22:44:11;10;9;7
44045;PMS7003;29709;52.396;16.796;2022-10-28T22:47:40;9;8;7
44045;PMS7003;29709;52.396;16.796;2022-10-28T22:50:42;7;7;6
44045;PMS7003;29709;52.396;16.796;2022-10-28T22:53:45;9;8;6
44045;PMS7003;29709;52.396;16.796;2022-10-28T22:56:48;9;7;6
44045;PMS7003;29709;52.396;16.796;2022-10-28T22:59:51;8;8;7
44045;PMS7003;29709;52.396;16.796;2022-10-28T23:02:55;8;7;6
44045;PMS7003;29709;52.396;16.796;2022-10-28T23:05:58;9;7;7
44045;PMS7003;29709;52.396;16.796;2022-10-28T23:09:01;8;7;5
44045;PMS7003;29709;52.396;16.796;2022-10-28T23:12:04;9;8;7
44045;PMS7003;29709;52.396;16.796;2022-10-28T23:15:07;9;9;7
44045;PMS7003;29709;52.396;16.796;2022-10-28T23:18:36;3;1;1
44045;PMS7003;29709;52.396;16.796;2022-10-28T23:21:39;10;8;7
44045;PMS7003;29709;52.396;16.796;2022-10-28T23:24:42;8;8;6
44045;PMS7003;29709;52.396;16.796;2022-10-28T23:27:45;9;7;6
44045;PMS7003;29709;52.396;16.796;2022-10-28T23:30:48;10;8;6
44045;PMS7003;29709;52.396;16.796;2022-10-28T23:33:52;2;2;1
44045;PMS7003;29709;52.396;16.796;2022-10-28T23:36:55;9;7;6
44045;PMS7003;29709;52.396;16.796;2022-10-28T23:39:58;9;8;6
44045;PMS7003;29709;52.396;16.796;2022-10-28T23:43:01;7;6;6
44045;PMS7003;29709;52.396;16.796;2022-10-28T23:46:06;7;7;6
44045;PMS7003;29709;52.396;16.796;2022-10-28T23:49:36;10;8;6
44045;PMS7003;29709;52.396;16.796;2022-10-28T23:52:39;9;8;7